Airfield :
LOGIN :

Register | Disclaimer

   EN    FR    IT 

 










Legend :    VFR   Marginal VFR   IFR   Intensive IFR   Very Intensive IFR
Visi :
Ceiling :
>= 8 km
>= 3000ft
5 to 8 km
1000 to 3000 ft
1500m to 5 km
500 to 1000 ft
800 to 1500m
200 to 500 ft
< 800m
< 200 ft
Symbols :   Thunderstorms  Fog  Heavy snow  Heavy precipitations  Wind > 20 kt
SIGMETs :     Misc.  Thunderstorms  Icing  Turbulence  Mountain Waves  Volcanic Ashes






- Airport Elevation : 1411 ft
- IATA code : ZHI


LSZG - Grenchen

CURRENT METAR :
  • 051920Z AUTO VRB03KT 9999 BKN028 BKN031 04/03 Q1033

EXPIRED METARs :
  • 051850Z AUTO 09004KT 060V120 9999 SCT026 BKN030 04/02 Q1033
  • 051820Z AUTO VRB02KT 9999 BKN024 BKN027 BKN030 04/02 Q1033
  • 051750Z AUTO VRB01KT 9999 -RA BKN024 BKN027 04/02 Q1033
  • 051720Z AUTO 26004KT 170V330 9999 -RA SCT014 SCT016 BKN018 04/03 Q1033
  • 051650Z 22007KT 9999 -RA BKN017 BKN019 BKN021 04/04 Q1033

TAF TAF LSZG
Valid from the 05 at 15:00 until the 06 at 00:00 UTC


051425Z 0515/0524 23005KT 9999 FEW008 SCT025 BKN055
TEMPO 0515/0518 RA
PROB30
TEMPO 0515/0524 4500 -RASN BKN014
ATIS : +41 32 396 96 33



MET'MAP, your aeronautical weather chart ! - Copyright ORBIFLY December 2007 - Disclaimer

ORBIFLY MET'MAP TEAM :

Programming & Development : Alexandra Zaïnal
Original concept : Baudouin d'Aumeries
Technical & hardware support : Manuel Goepfert
Assistance : Marc-Olivier Méhu




SOURCES & CREDITS :

   NOAA